<?xml version="1.0" encoding="UTF-8" standalone="no" ?>
<gpx xmlns="http://www.topografix.com/GPX/1/1" xmlns:xsi="http://www.w3.org/2001/XMLSchema-instance" xsi:schemaLocation="http://www.topografix.com/GPX/1/1 http://www.topografix.com/GPX/1/1/gpx.xsd" version="1.1" creator="VisuGPX - https://www.visugpx.com">
  <metadata>
    <name>randonnée gorge du verdon</name>
  </metadata>
  <wpt lat="45.59193" lon="0.70117">
    <ele>277.8</ele>
  </wpt>
  <wpt lat="45.65739" lon="0.55618">
    <ele>143.3</ele>
  </wpt>
  <wpt lat="45.63709" lon="0.85693">
    <ele>372.8</ele>
  </wpt>
  <wpt lat="45.73184" lon="0.86843">
    <ele>357.9</ele>
  </wpt>
  <wpt lat="45.79874" lon="1.03757">
    <ele>396.8</ele>
  </wpt>
  <wpt lat="45.7679" lon="0.77824">
    <ele>289.8</ele>
    <type><![CDATA[hotel]]></type>
  </wpt>
  <wpt lat="43.84808" lon="6.51102">
    <ele>732.8</ele>
  </wpt>
  <wpt lat="43.77962" lon="6.33969">
    <ele>936.7</ele>
  </wpt>
  <trk>
    <name><![CDATA[25oct 2020]]></name>
    <trkseg>
      <trkpt lat="43.75901" lon="6.15077">
        <ele>534</ele>
      </trkpt>
      <trkpt lat="43.75887" lon="6.15088">
        <ele>530.6</ele>
      </trkpt>
      <trkpt lat="43.75868" lon="6.15101">
        <ele>527</ele>
      </trkpt>
      <trkpt lat="43.75853" lon="6.15124">
        <ele>526</ele>
      </trkpt>
      <trkpt lat="43.75841" lon="6.15163">
        <ele>525.805</ele>
        <time>2017-03-25T21:55:42Z</time>
      </trkpt>
      <trkpt lat="43.75842" lon="6.15183">
        <ele>524.608</ele>
        <time>2017-03-25T21:56:02Z</time>
      </trkpt>
      <trkpt lat="43.75825" lon="6.15193">
        <ele>519.865</ele>
        <time>2017-03-25T21:56:22Z</time>
      </trkpt>
      <trkpt lat="43.75839" lon="6.15216">
        <ele>518.297</ele>
        <time>2017-03-25T21:56:42Z</time>
      </trkpt>
      <trkpt lat="43.75873" lon="6.15243">
        <ele>510.419</ele>
        <time>2017-03-25T21:57:02Z</time>
      </trkpt>
      <trkpt lat="43.75909" lon="6.15251">
        <ele>513.952</ele>
        <time>2017-03-25T21:57:22Z</time>
      </trkpt>
      <trkpt lat="43.75953" lon="6.15284">
        <ele>495.128</ele>
        <time>2017-03-25T21:57:42Z</time>
      </trkpt>
      <trkpt lat="43.75972" lon="6.15279">
        <ele>490.04</ele>
        <time>2017-03-25T21:58:02Z</time>
      </trkpt>
      <trkpt lat="43.75978" lon="6.15263">
        <ele>498.6</ele>
      </trkpt>
      <trkpt lat="43.75988" lon="6.15253">
        <ele>500.3</ele>
      </trkpt>
      <trkpt lat="43.75993" lon="6.15265">
        <ele>493.938</ele>
        <time>2017-03-25T21:58:42Z</time>
      </trkpt>
      <trkpt lat="43.7599" lon="6.15287">
        <ele>490.522</ele>
        <time>2017-03-25T21:59:02Z</time>
      </trkpt>
      <trkpt lat="43.76" lon="6.15332">
        <ele>484.362</ele>
        <time>2017-03-25T21:59:22Z</time>
      </trkpt>
      <trkpt lat="43.76021" lon="6.15339">
        <ele>486.208</ele>
        <time>2017-03-25T21:59:42Z</time>
      </trkpt>
      <trkpt lat="43.76032" lon="6.15378">
        <ele>483.408</ele>
        <time>2017-03-25T22:00:02Z</time>
      </trkpt>
      <trkpt lat="43.76004" lon="6.15425">
        <ele>480.036</ele>
        <time>2017-03-25T22:00:22Z</time>
      </trkpt>
      <trkpt lat="43.76018" lon="6.15554">
        <ele>481.158</ele>
        <time>2017-03-25T22:00:42Z</time>
      </trkpt>
      <trkpt lat="43.76106" lon="6.15658">
        <ele>485.94</ele>
        <time>2017-03-25T22:01:02Z</time>
      </trkpt>
      <trkpt lat="43.76161" lon="6.15782">
        <ele>485.563</ele>
        <time>2017-03-25T22:01:22Z</time>
      </trkpt>
      <trkpt lat="43.7616" lon="6.15806">
        <ele>484.659</ele>
        <time>2017-03-25T22:01:42Z</time>
      </trkpt>
      <trkpt lat="43.76144" lon="6.1584">
        <ele>481.241</ele>
        <time>2017-03-25T22:02:02Z</time>
      </trkpt>
      <trkpt lat="43.76157" lon="6.15899">
        <ele>480.993</ele>
        <time>2017-03-25T22:02:22Z</time>
      </trkpt>
      <trkpt lat="43.76233" lon="6.15952">
        <ele>485.629</ele>
        <time>2017-03-25T22:02:42Z</time>
      </trkpt>
      <trkpt lat="43.76265" lon="6.16045">
        <ele>491.577</ele>
        <time>2017-03-25T22:03:02Z</time>
      </trkpt>
      <trkpt lat="43.76268" lon="6.1612">
        <ele>483.561</ele>
        <time>2017-03-25T22:03:22Z</time>
      </trkpt>
      <trkpt lat="43.76302" lon="6.16165">
        <ele>484.427</ele>
        <time>2017-03-25T22:03:42Z</time>
      </trkpt>
      <trkpt lat="43.76325" lon="6.16249">
        <ele>482.108</ele>
        <time>2017-03-25T22:04:02Z</time>
      </trkpt>
      <trkpt lat="43.76394" lon="6.16357">
        <ele>480.531</ele>
        <time>2017-03-25T22:04:22Z</time>
      </trkpt>
      <trkpt lat="43.7644" lon="6.16355">
        <ele>485.373</ele>
        <time>2017-03-25T22:04:42Z</time>
      </trkpt>
      <trkpt lat="43.76464" lon="6.16388">
        <ele>485.465</ele>
        <time>2017-03-25T22:05:02Z</time>
      </trkpt>
      <trkpt lat="43.76464" lon="6.16405">
        <ele>485.748</ele>
        <time>2017-03-25T22:05:22Z</time>
      </trkpt>
      <trkpt lat="43.76448" lon="6.1645">
        <ele>483.054</ele>
        <time>2017-03-25T22:05:42Z</time>
      </trkpt>
      <trkpt lat="43.76452" lon="6.16475">
        <ele>483.696</ele>
        <time>2017-03-25T22:06:02Z</time>
      </trkpt>
      <trkpt lat="43.7648" lon="6.1653">
        <ele>485.128</ele>
        <time>2017-03-25T22:06:22Z</time>
      </trkpt>
      <trkpt lat="43.76511" lon="6.1656">
        <ele>488.154</ele>
        <time>2017-03-25T22:06:42Z</time>
      </trkpt>
      <trkpt lat="43.76516" lon="6.16622">
        <ele>486.015</ele>
        <time>2017-03-25T22:07:02Z</time>
      </trkpt>
      <trkpt lat="43.76529" lon="6.16691">
        <ele>482.865</ele>
        <time>2017-03-25T22:07:22Z</time>
      </trkpt>
      <trkpt lat="43.76544" lon="6.16725">
        <ele>485.811</ele>
        <time>2017-03-25T22:07:42Z</time>
      </trkpt>
      <trkpt lat="43.76546" lon="6.1676">
        <ele>485.608</ele>
        <time>2017-03-25T22:08:02Z</time>
      </trkpt>
      <trkpt lat="43.76535" lon="6.16828">
        <ele>481.465</ele>
        <time>2017-03-25T22:08:22Z</time>
      </trkpt>
      <trkpt lat="43.76539" lon="6.16843">
        <ele>481.337</ele>
        <time>2017-03-25T22:08:42Z</time>
      </trkpt>
      <trkpt lat="43.7656" lon="6.16847">
        <ele>483.769</ele>
        <time>2017-03-25T22:09:02Z</time>
      </trkpt>
      <trkpt lat="43.76566" lon="6.16823">
        <ele>487.412</ele>
        <time>2017-03-25T22:09:22Z</time>
      </trkpt>
      <trkpt lat="43.76593" lon="6.16764">
        <ele>494.448</ele>
        <time>2017-03-25T22:09:42Z</time>
      </trkpt>
      <trkpt lat="43.76595" lon="6.16739">
        <ele>498.88</ele>
        <time>2017-03-25T22:10:02Z</time>
      </trkpt>
      <trkpt lat="43.76608" lon="6.16707">
        <ele>503.862</ele>
        <time>2017-03-25T22:10:22Z</time>
      </trkpt>
      <trkpt lat="43.76618" lon="6.16647">
        <ele>518.138</ele>
        <time>2017-03-25T22:10:42Z</time>
      </trkpt>
      <trkpt lat="43.76607" lon="6.16575">
        <ele>530.174</ele>
        <time>2017-03-25T22:11:02Z</time>
      </trkpt>
      <trkpt lat="43.76627" lon="6.16583">
        <ele>533.656</ele>
        <time>2017-03-25T22:11:22Z</time>
      </trkpt>
      <trkpt lat="43.7663" lon="6.16542">
        <ele>540.721</ele>
        <time>2017-03-25T22:11:42Z</time>
      </trkpt>
      <trkpt lat="43.76673" lon="6.16559">
        <ele>543.808</ele>
        <time>2017-03-25T22:12:02Z</time>
      </trkpt>
      <trkpt lat="43.76665" lon="6.16511">
        <ele>551.731</ele>
        <time>2017-03-25T22:12:22Z</time>
      </trkpt>
      <trkpt lat="43.76681" lon="6.16485">
        <ele>556.093</ele>
        <time>2017-03-25T22:12:42Z</time>
      </trkpt>
      <trkpt lat="43.76695" lon="6.16509">
        <ele>557.065</ele>
        <time>2017-03-25T22:13:02Z</time>
      </trkpt>
      <trkpt lat="43.76707" lon="6.16478">
        <ele>560.318</ele>
        <time>2017-03-25T22:13:22Z</time>
      </trkpt>
      <trkpt lat="43.76749" lon="6.16418">
        <ele>570.624</ele>
        <time>2017-03-25T22:13:42Z</time>
      </trkpt>
      <trkpt lat="43.76793" lon="6.16331">
        <ele>581.066</ele>
        <time>2017-03-25T22:14:02Z</time>
      </trkpt>
      <trkpt lat="43.76829" lon="6.16268">
        <ele>591.438</ele>
        <time>2017-03-25T22:14:22Z</time>
      </trkpt>
      <trkpt lat="43.76887" lon="6.16235">
        <ele>610.534</ele>
        <time>2017-03-25T22:14:42Z</time>
      </trkpt>
      <trkpt lat="43.76911" lon="6.1624">
        <ele>613.737</ele>
        <time>2017-03-25T22:15:02Z</time>
      </trkpt>
      <trkpt lat="43.76954" lon="6.16237">
        <ele>623.549</ele>
        <time>2017-03-25T22:15:22Z</time>
      </trkpt>
      <trkpt lat="43.76932" lon="6.16202">
        <ele>630.613</ele>
        <time>2017-03-25T22:15:42Z</time>
      </trkpt>
      <trkpt lat="43.76962" lon="6.16208">
        <ele>635.308</ele>
        <time>2017-03-25T22:16:02Z</time>
      </trkpt>
      <trkpt lat="43.77021" lon="6.16262">
        <ele>641.877</ele>
        <time>2017-03-25T22:16:22Z</time>
      </trkpt>
      <trkpt lat="43.77056" lon="6.16319">
        <ele>643.539</ele>
        <time>2017-03-25T22:16:42Z</time>
      </trkpt>
      <trkpt lat="43.77106" lon="6.16338">
        <ele>648.881</ele>
        <time>2017-03-25T22:17:02Z</time>
      </trkpt>
      <trkpt lat="43.77127" lon="6.16331">
        <ele>650.044</ele>
        <time>2017-03-25T22:17:22Z</time>
      </trkpt>
      <trkpt lat="43.77211" lon="6.16267">
        <ele>652.44</ele>
        <time>2017-03-25T22:17:42Z</time>
      </trkpt>
      <trkpt lat="43.7751" lon="6.16025">
        <ele>654.042</ele>
        <time>2017-03-25T22:18:02Z</time>
      </trkpt>
      <trkpt lat="43.77619" lon="6.15943">
        <ele>654.094</ele>
        <time>2017-03-25T22:18:22Z</time>
      </trkpt>
      <trkpt lat="43.77895" lon="6.1577">
        <ele>653.02</ele>
        <time>2017-03-25T22:18:42Z</time>
      </trkpt>
      <trkpt lat="43.78073" lon="6.15664">
        <ele>654.644</ele>
        <time>2017-03-25T22:19:02Z</time>
      </trkpt>
      <trkpt lat="43.78458" lon="6.15505">
        <ele>655.205</ele>
        <time>2017-03-25T22:19:22Z</time>
      </trkpt>
      <trkpt lat="43.78713" lon="6.15472">
        <ele>652.115</ele>
        <time>2017-03-25T22:19:42Z</time>
      </trkpt>
      <trkpt lat="43.78653" lon="6.15704">
        <ele>654.508</ele>
        <time>2017-03-25T22:20:02Z</time>
      </trkpt>
      <trkpt lat="43.78718" lon="6.16016">
        <ele>656.738</ele>
        <time>2017-03-25T22:20:22Z</time>
      </trkpt>
      <trkpt lat="43.78758" lon="6.16093">
        <ele>657.07</ele>
        <time>2017-03-25T22:20:42Z</time>
      </trkpt>
      <trkpt lat="43.78769" lon="6.16202">
        <ele>658.112</ele>
        <time>2017-03-25T22:21:02Z</time>
      </trkpt>
      <trkpt lat="43.78762" lon="6.16309">
        <ele>659.255</ele>
        <time>2017-03-25T22:21:22Z</time>
      </trkpt>
      <trkpt lat="43.78696" lon="6.16457">
        <ele>661.941</ele>
        <time>2017-03-25T22:21:42Z</time>
      </trkpt>
      <trkpt lat="43.78651" lon="6.16711">
        <ele>663.363</ele>
        <time>2017-03-25T22:22:02Z</time>
      </trkpt>
      <trkpt lat="43.78655" lon="6.17117">
        <ele>667.125</ele>
        <time>2017-03-25T22:22:22Z</time>
      </trkpt>
      <trkpt lat="43.78204" lon="6.17618">
        <ele>664.771</ele>
        <time>2017-03-25T22:22:42Z</time>
      </trkpt>
      <trkpt lat="43.78231" lon="6.17661">
        <ele>666.687</ele>
        <time>2017-03-25T22:23:02Z</time>
      </trkpt>
      <trkpt lat="43.78208" lon="6.17754">
        <ele>664.742</ele>
        <time>2017-03-25T22:23:22Z</time>
      </trkpt>
      <trkpt lat="43.78249" lon="6.17799">
        <ele>669.226</ele>
        <time>2017-03-25T22:23:42Z</time>
      </trkpt>
      <trkpt lat="43.78296" lon="6.17818">
        <ele>669.408</ele>
        <time>2017-03-25T22:24:02Z</time>
      </trkpt>
      <trkpt lat="43.78348" lon="6.17935">
        <ele>670.532</ele>
        <time>2017-03-25T22:24:22Z</time>
      </trkpt>
      <trkpt lat="43.78409" lon="6.17978">
        <ele>671.774</ele>
        <time>2017-03-25T22:24:42Z</time>
      </trkpt>
      <trkpt lat="43.78428" lon="6.18046">
        <ele>671.176</ele>
        <time>2017-03-25T22:25:02Z</time>
      </trkpt>
      <trkpt lat="43.78562" lon="6.18106">
        <ele>674.419</ele>
        <time>2017-03-25T22:25:22Z</time>
      </trkpt>
      <trkpt lat="43.78568" lon="6.18134">
        <ele>672.315</ele>
        <time>2017-03-25T22:25:42Z</time>
      </trkpt>
      <trkpt lat="43.7856" lon="6.18182">
        <ele>672.347</ele>
        <time>2017-03-25T22:26:02Z</time>
      </trkpt>
      <trkpt lat="43.78619" lon="6.18233">
        <ele>671.829</ele>
        <time>2017-03-25T22:26:22Z</time>
      </trkpt>
      <trkpt lat="43.78662" lon="6.18334">
        <ele>670.135</ele>
        <time>2017-03-25T22:26:42Z</time>
      </trkpt>
      <trkpt lat="43.78718" lon="6.18348">
        <ele>670.783</ele>
        <time>2017-03-25T22:27:02Z</time>
      </trkpt>
      <trkpt lat="43.78774" lon="6.18397">
        <ele>670.625</ele>
        <time>2017-03-25T22:27:22Z</time>
      </trkpt>
      <trkpt lat="43.78803" lon="6.18459">
        <ele>670.617</ele>
        <time>2017-03-25T22:27:42Z</time>
      </trkpt>
      <trkpt lat="43.78915" lon="6.1859">
        <ele>679.308</ele>
        <time>2017-03-25T22:28:02Z</time>
      </trkpt>
      <trkpt lat="43.78925" lon="6.18637">
        <ele>680.012</ele>
        <time>2017-03-25T22:28:22Z</time>
      </trkpt>
      <trkpt lat="43.78944" lon="6.18655">
        <ele>678.884</ele>
        <time>2017-03-25T22:28:42Z</time>
      </trkpt>
      <trkpt lat="43.78993" lon="6.1866">
        <ele>680.286</ele>
        <time>2017-03-25T22:29:02Z</time>
      </trkpt>
      <trkpt lat="43.79023" lon="6.18688">
        <ele>679.819</ele>
        <time>2017-03-25T22:29:22Z</time>
      </trkpt>
      <trkpt lat="43.79057" lon="6.18686">
        <ele>680.375</ele>
        <time>2017-03-25T22:29:42Z</time>
      </trkpt>
      <trkpt lat="43.79079" lon="6.1867">
        <ele>680.987</ele>
        <time>2017-03-25T22:30:02Z</time>
      </trkpt>
      <trkpt lat="43.79299" lon="6.18695">
        <ele>687.559</ele>
        <time>2017-03-25T22:30:22Z</time>
      </trkpt>
      <trkpt lat="43.79407" lon="6.18765">
        <ele>693.165</ele>
        <time>2017-03-25T22:30:42Z</time>
      </trkpt>
      <trkpt lat="43.79477" lon="6.18869">
        <ele>693.744</ele>
        <time>2017-03-25T22:31:02Z</time>
      </trkpt>
      <trkpt lat="43.79476" lon="6.18951">
        <ele>691.005</ele>
        <time>2017-03-25T22:31:22Z</time>
      </trkpt>
      <trkpt lat="43.7956" lon="6.19029">
        <ele>695.115</ele>
        <time>2017-03-25T22:31:42Z</time>
      </trkpt>
      <trkpt lat="43.79571" lon="6.19057">
        <ele>693.908</ele>
        <time>2017-03-25T22:32:02Z</time>
      </trkpt>
      <trkpt lat="43.7959" lon="6.19075">
        <ele>695.248</ele>
        <time>2017-03-25T22:32:22Z</time>
      </trkpt>
      <trkpt lat="43.79607" lon="6.1914">
        <ele>694.46</ele>
        <time>2017-03-25T22:32:42Z</time>
      </trkpt>
      <trkpt lat="43.79633" lon="6.19186">
        <ele>695.232</ele>
        <time>2017-03-25T22:33:02Z</time>
      </trkpt>
      <trkpt lat="43.79636" lon="6.19249">
        <ele>696.875</ele>
        <time>2017-03-25T22:33:22Z</time>
      </trkpt>
      <trkpt lat="43.79648" lon="6.19279">
        <ele>697.321</ele>
        <time>2017-03-25T22:33:42Z</time>
      </trkpt>
      <trkpt lat="43.79689" lon="6.19296">
        <ele>699.713</ele>
        <time>2017-03-25T22:34:02Z</time>
      </trkpt>
      <trkpt lat="43.79693" lon="6.19319">
        <ele>700.445</ele>
        <time>2017-03-25T22:34:22Z</time>
      </trkpt>
      <trkpt lat="43.7971" lon="6.19345">
        <ele>701.611</ele>
        <time>2017-03-25T22:34:42Z</time>
      </trkpt>
      <trkpt lat="43.79657" lon="6.19446">
        <ele>700.376</ele>
        <time>2017-03-25T22:35:02Z</time>
      </trkpt>
      <trkpt lat="43.79688" lon="6.19502">
        <ele>702.29</ele>
        <time>2017-03-25T22:35:22Z</time>
      </trkpt>
      <trkpt lat="43.79728" lon="6.19566">
        <ele>704.719</ele>
        <time>2017-03-25T22:35:42Z</time>
      </trkpt>
      <trkpt lat="43.79817" lon="6.19655">
        <ele>707.708</ele>
        <time>2017-03-25T22:36:02Z</time>
      </trkpt>
      <trkpt lat="43.79893" lon="6.19883">
        <ele>712.281</ele>
        <time>2017-03-25T22:36:22Z</time>
      </trkpt>
      <trkpt lat="43.79919" lon="6.19908">
        <ele>714.743</ele>
        <time>2017-03-25T22:36:42Z</time>
      </trkpt>
      <trkpt lat="43.79942" lon="6.19896">
        <ele>714.265</ele>
        <time>2017-03-25T22:37:02Z</time>
      </trkpt>
      <trkpt lat="43.80007" lon="6.19774">
        <ele>713.128</ele>
        <time>2017-03-25T22:37:22Z</time>
      </trkpt>
      <trkpt lat="43.8011" lon="6.19924">
        <ele>717.054</ele>
        <time>2017-03-25T22:37:42Z</time>
      </trkpt>
      <trkpt lat="43.80314" lon="6.19748">
        <ele>717.696</ele>
        <time>2017-03-25T22:38:02Z</time>
      </trkpt>
      <trkpt lat="43.80368" lon="6.19796">
        <ele>720.358</ele>
        <time>2017-03-25T22:38:22Z</time>
      </trkpt>
      <trkpt lat="43.80601" lon="6.19896">
        <ele>731.684</ele>
        <time>2017-03-25T22:38:42Z</time>
      </trkpt>
      <trkpt lat="43.80752" lon="6.1999">
        <ele>735.081</ele>
        <time>2017-03-25T22:39:02Z</time>
      </trkpt>
      <trkpt lat="43.80796" lon="6.19979">
        <ele>735.061</ele>
        <time>2017-03-25T22:39:22Z</time>
      </trkpt>
      <trkpt lat="43.80831" lon="6.19991">
        <ele>736.817</ele>
        <time>2017-03-25T22:39:42Z</time>
      </trkpt>
      <trkpt lat="43.80859" lon="6.20028">
        <ele>738.608</ele>
        <time>2017-03-25T22:40:02Z</time>
      </trkpt>
      <trkpt lat="43.80867" lon="6.20053">
        <ele>734.152</ele>
        <time>2017-03-25T22:40:22Z</time>
      </trkpt>
      <trkpt lat="43.80902" lon="6.20059">
        <ele>729.054</ele>
        <time>2017-03-25T22:40:42Z</time>
      </trkpt>
      <trkpt lat="43.80867" lon="6.20103">
        <ele>718.356</ele>
        <time>2017-03-25T22:41:02Z</time>
      </trkpt>
      <trkpt lat="43.80841" lon="6.20111">
        <ele>713.839</ele>
        <time>2017-03-25T22:41:22Z</time>
      </trkpt>
      <trkpt lat="43.80863" lon="6.20131">
        <ele>709.185</ele>
        <time>2017-03-25T22:41:42Z</time>
      </trkpt>
      <trkpt lat="43.80829" lon="6.2015">
        <ele>701.037</ele>
        <time>2017-03-25T22:42:02Z</time>
      </trkpt>
      <trkpt lat="43.80866" lon="6.20172">
        <ele>697.319</ele>
        <time>2017-03-25T22:42:22Z</time>
      </trkpt>
      <trkpt lat="43.80836" lon="6.20199">
        <ele>689.755</ele>
        <time>2017-03-25T22:42:42Z</time>
      </trkpt>
      <trkpt lat="43.80812" lon="6.20208">
        <ele>683.236</ele>
        <time>2017-03-25T22:43:02Z</time>
      </trkpt>
      <trkpt lat="43.80816" lon="6.20226">
        <ele>680.517</ele>
        <time>2017-03-25T22:43:22Z</time>
      </trkpt>
      <trkpt lat="43.80851" lon="6.20262">
        <ele>673.418</ele>
        <time>2017-03-25T22:43:42Z</time>
      </trkpt>
      <trkpt lat="43.80833" lon="6.20309">
        <ele>665.308</ele>
        <time>2017-03-25T22:44:02Z</time>
      </trkpt>
      <trkpt lat="43.80847" lon="6.20336">
        <ele>657.997</ele>
        <time>2017-03-25T22:44:22Z</time>
      </trkpt>
      <trkpt lat="43.80844" lon="6.20367">
        <ele>650.979</ele>
        <time>2017-03-25T22:44:42Z</time>
      </trkpt>
      <trkpt lat="43.808" lon="6.20369">
        <ele>652.911</ele>
        <time>2017-03-25T22:45:02Z</time>
      </trkpt>
      <trkpt lat="43.80771" lon="6.20341">
        <ele>649.784</ele>
        <time>2017-03-25T22:45:22Z</time>
      </trkpt>
      <trkpt lat="43.80702" lon="6.20452">
        <ele>649.35</ele>
        <time>2017-03-25T22:45:42Z</time>
      </trkpt>
      <trkpt lat="43.80699" lon="6.20507">
        <ele>645.782</ele>
        <time>2017-03-25T22:46:02Z</time>
      </trkpt>
      <trkpt lat="43.80714" lon="6.20568">
        <ele>634.934</ele>
        <time>2017-03-25T22:46:22Z</time>
      </trkpt>
      <trkpt lat="43.8075" lon="6.20597">
        <ele>618.13</ele>
        <time>2017-03-25T22:46:42Z</time>
      </trkpt>
      <trkpt lat="43.80751" lon="6.2061">
        <ele>614.913</ele>
        <time>2017-03-25T22:47:02Z</time>
      </trkpt>
      <trkpt lat="43.80731" lon="6.20613">
        <ele>618.743</ele>
        <time>2017-03-25T22:47:22Z</time>
      </trkpt>
      <trkpt lat="43.80761" lon="6.20648">
        <ele>604.107</ele>
        <time>2017-03-25T22:47:42Z</time>
      </trkpt>
      <trkpt lat="43.80756" lon="6.20719">
        <ele>589.708</ele>
        <time>2017-03-25T22:48:02Z</time>
      </trkpt>
      <trkpt lat="43.80737" lon="6.20784">
        <ele>587.745</ele>
        <time>2017-03-25T22:48:22Z</time>
      </trkpt>
      <trkpt lat="43.80752" lon="6.20818">
        <ele>584.967</ele>
        <time>2017-03-25T22:48:42Z</time>
      </trkpt>
      <trkpt lat="43.80718" lon="6.20917">
        <ele>581.269</ele>
        <time>2017-03-25T22:49:02Z</time>
      </trkpt>
      <trkpt lat="43.80711" lon="6.21028">
        <ele>566.912</ele>
        <time>2017-03-25T22:49:22Z</time>
      </trkpt>
      <trkpt lat="43.80678" lon="6.21192">
        <ele>542.458</ele>
        <time>2017-03-25T22:49:42Z</time>
      </trkpt>
      <trkpt lat="43.80625" lon="6.21288">
        <ele>524.37</ele>
        <time>2017-03-25T22:50:02Z</time>
      </trkpt>
      <trkpt lat="43.80612" lon="6.21349">
        <ele>518.442</ele>
        <time>2017-03-25T22:50:22Z</time>
      </trkpt>
      <trkpt lat="43.80578" lon="6.21382">
        <ele>509.928</ele>
        <time>2017-03-25T22:50:42Z</time>
      </trkpt>
      <trkpt lat="43.80514" lon="6.21373">
        <ele>496.437</ele>
        <time>2017-03-25T22:51:02Z</time>
      </trkpt>
      <trkpt lat="43.80476" lon="6.21441">
        <ele>484.149</ele>
        <time>2017-03-25T22:51:22Z</time>
      </trkpt>
      <trkpt lat="43.80503" lon="6.21469">
        <ele>483.313</ele>
        <time>2017-03-25T22:51:42Z</time>
      </trkpt>
      <trkpt lat="43.80517" lon="6.21493">
        <ele>482.908</ele>
        <time>2017-03-25T22:52:02Z</time>
      </trkpt>
      <trkpt lat="43.80509" lon="6.21511">
        <ele>481.197</ele>
        <time>2017-03-25T22:52:22Z</time>
      </trkpt>
      <trkpt lat="43.80469" lon="6.21507">
        <ele>479.029</ele>
        <time>2017-03-25T22:52:42Z</time>
      </trkpt>
      <trkpt lat="43.80467" lon="6.21525">
        <ele>479.011</ele>
        <time>2017-03-25T22:53:02Z</time>
      </trkpt>
      <trkpt lat="43.80504" lon="6.21607">
        <ele>479.364</ele>
        <time>2017-03-25T22:53:22Z</time>
      </trkpt>
      <trkpt lat="43.80529" lon="6.21626">
        <ele>479.68</ele>
        <time>2017-03-25T22:53:42Z</time>
      </trkpt>
      <trkpt lat="43.80551" lon="6.21704">
        <ele>480.662</ele>
        <time>2017-03-25T22:54:02Z</time>
      </trkpt>
      <trkpt lat="43.80554" lon="6.21769">
        <ele>482.564</ele>
        <time>2017-03-25T22:54:22Z</time>
      </trkpt>
      <trkpt lat="43.8054" lon="6.21842">
        <ele>482.55</ele>
        <time>2017-03-25T22:54:42Z</time>
      </trkpt>
      <trkpt lat="43.80554" lon="6.21868">
        <ele>485.032</ele>
        <time>2017-03-25T22:55:02Z</time>
      </trkpt>
      <trkpt lat="43.80565" lon="6.21868">
        <ele>486.192</ele>
        <time>2017-03-25T22:55:22Z</time>
      </trkpt>
      <trkpt lat="43.80611" lon="6.219">
        <ele>481.811</ele>
        <time>2017-03-25T22:55:42Z</time>
      </trkpt>
      <trkpt lat="43.8063" lon="6.21938">
        <ele>482.908</ele>
        <time>2017-03-25T22:56:02Z</time>
      </trkpt>
      <trkpt lat="43.80651" lon="6.22073">
        <ele>498.727</ele>
        <time>2017-03-25T22:56:22Z</time>
      </trkpt>
      <trkpt lat="43.80626" lon="6.22156">
        <ele>490.029</ele>
        <time>2017-03-25T22:56:42Z</time>
      </trkpt>
      <trkpt lat="43.80628" lon="6.22201">
        <ele>486.561</ele>
        <time>2017-03-25T22:57:02Z</time>
      </trkpt>
      <trkpt lat="43.80649" lon="6.22234">
        <ele>484.924</ele>
        <time>2017-03-25T22:57:22Z</time>
      </trkpt>
      <trkpt lat="43.8079" lon="6.22299">
        <ele>484.56</ele>
        <time>2017-03-25T22:57:42Z</time>
      </trkpt>
      <trkpt lat="43.80797" lon="6.22329">
        <ele>482.942</ele>
        <time>2017-03-25T22:58:02Z</time>
      </trkpt>
      <trkpt lat="43.80779" lon="6.2238">
        <ele>480.084</ele>
        <time>2017-03-25T22:58:22Z</time>
      </trkpt>
      <trkpt lat="43.80844" lon="6.22443">
        <ele>480.48</ele>
        <time>2017-03-25T22:58:42Z</time>
      </trkpt>
      <trkpt lat="43.80862" lon="6.22468">
        <ele>480.264</ele>
        <time>2017-03-25T22:59:02Z</time>
      </trkpt>
      <trkpt lat="43.80947" lon="6.22473">
        <ele>480.006</ele>
        <time>2017-03-25T22:59:22Z</time>
      </trkpt>
      <trkpt lat="43.80991" lon="6.22502">
        <ele>480.016</ele>
        <time>2017-03-25T22:59:42Z</time>
      </trkpt>
      <trkpt lat="43.81092" lon="6.22497">
        <ele>480.108</ele>
        <time>2017-03-25T23:00:02Z</time>
      </trkpt>
      <trkpt lat="43.81131" lon="6.2253">
        <ele>480.08</ele>
        <time>2017-03-25T23:00:22Z</time>
      </trkpt>
      <trkpt lat="43.81165" lon="6.22525">
        <ele>480.042</ele>
        <time>2017-03-25T23:00:42Z</time>
      </trkpt>
      <trkpt lat="43.81204" lon="6.22502">
        <ele>480.354</ele>
        <time>2017-03-25T23:01:02Z</time>
      </trkpt>
      <trkpt lat="43.81261" lon="6.2251">
        <ele>481.037</ele>
        <time>2017-03-25T23:01:22Z</time>
      </trkpt>
      <trkpt lat="43.81308" lon="6.22536">
        <ele>481.873</ele>
        <time>2017-03-25T23:01:42Z</time>
      </trkpt>
      <trkpt lat="43.81475" lon="6.22523">
        <ele>485.245</ele>
        <time>2017-03-25T23:02:02Z</time>
      </trkpt>
      <trkpt lat="43.81476" lon="6.22582">
        <ele>485.017</ele>
        <time>2017-03-25T23:02:22Z</time>
      </trkpt>
      <trkpt lat="43.81574" lon="6.22548">
        <ele>486.223</ele>
        <time>2017-03-25T23:02:42Z</time>
      </trkpt>
      <trkpt lat="43.81642" lon="6.22479">
        <ele>486.959</ele>
        <time>2017-03-25T23:03:02Z</time>
      </trkpt>
      <trkpt lat="43.81728" lon="6.22447">
        <ele>490.003</ele>
        <time>2017-03-25T23:03:22Z</time>
      </trkpt>
      <trkpt lat="43.81787" lon="6.22414">
        <ele>490.023</ele>
        <time>2017-03-25T23:03:42Z</time>
      </trkpt>
      <trkpt lat="43.81891" lon="6.22404">
        <ele>494.208</ele>
        <time>2017-03-25T23:04:02Z</time>
      </trkpt>
      <trkpt lat="43.81926" lon="6.22375">
        <ele>496.749</ele>
        <time>2017-03-25T23:04:22Z</time>
      </trkpt>
      <trkpt lat="43.81952" lon="6.22331">
        <ele>498.621</ele>
        <time>2017-03-25T23:04:42Z</time>
      </trkpt>
      <trkpt lat="43.81984" lon="6.22313">
        <ele>500.013</ele>
        <time>2017-03-25T23:05:02Z</time>
      </trkpt>
      <trkpt lat="43.82035" lon="6.22302">
        <ele>500.246</ele>
        <time>2017-03-25T23:05:22Z</time>
      </trkpt>
      <trkpt lat="43.82132" lon="6.22229">
        <ele>503.712</ele>
        <time>2017-03-25T23:05:42Z</time>
      </trkpt>
      <trkpt lat="43.8219" lon="6.22217">
        <ele>501.964</ele>
        <time>2017-03-25T23:06:02Z</time>
      </trkpt>
      <trkpt lat="43.82251" lon="6.22226">
        <ele>501.956</ele>
        <time>2017-03-25T23:06:22Z</time>
      </trkpt>
      <trkpt lat="43.8228" lon="6.22191">
        <ele>504.372</ele>
        <time>2017-03-25T23:06:42Z</time>
      </trkpt>
      <trkpt lat="43.82319" lon="6.22198">
        <ele>503.914</ele>
        <time>2017-03-25T23:07:02Z</time>
      </trkpt>
      <trkpt lat="43.82329" lon="6.22159">
        <ele>506.754</ele>
        <time>2017-03-25T23:07:22Z</time>
      </trkpt>
      <trkpt lat="43.82359" lon="6.22136">
        <ele>507.609</ele>
        <time>2017-03-25T23:07:42Z</time>
      </trkpt>
      <trkpt lat="43.82402" lon="6.22136">
        <ele>507.208</ele>
        <time>2017-03-25T23:08:02Z</time>
      </trkpt>
      <trkpt lat="43.8243" lon="6.22065">
        <ele>511.835</ele>
        <time>2017-03-25T23:08:22Z</time>
      </trkpt>
      <trkpt lat="43.82504" lon="6.22042">
        <ele>516.797</ele>
        <time>2017-03-25T23:08:42Z</time>
      </trkpt>
      <trkpt lat="43.82586" lon="6.22026">
        <ele>517.369</ele>
        <time>2017-03-25T23:09:02Z</time>
      </trkpt>
      <trkpt lat="43.82716" lon="6.22078">
        <ele>515.032</ele>
        <time>2017-03-25T23:09:22Z</time>
      </trkpt>
      <trkpt lat="43.82741" lon="6.22037">
        <ele>517.368</ele>
        <time>2017-03-25T23:09:42Z</time>
      </trkpt>
      <trkpt lat="43.82765" lon="6.22019">
        <ele>518.59</ele>
        <time>2019-05-15T21:36:11Z</time>
      </trkpt>
      <trkpt lat="43.82804" lon="6.21991">
        <ele>519.322</ele>
        <time>2019-05-15T21:36:31Z</time>
      </trkpt>
      <trkpt lat="43.82838" lon="6.21938">
        <ele>522.498</ele>
        <time>2019-05-15T21:36:51Z</time>
      </trkpt>
      <trkpt lat="43.82843" lon="6.2192">
        <ele>523.266</ele>
        <time>2019-05-15T21:37:11Z</time>
      </trkpt>
      <trkpt lat="43.82924" lon="6.21897">
        <ele>525.029</ele>
        <time>2019-05-15T21:37:31Z</time>
      </trkpt>
      <trkpt lat="43.82943" lon="6.21905">
        <ele>525.421</ele>
        <time>2019-05-15T21:37:51Z</time>
      </trkpt>
      <trkpt lat="43.82941" lon="6.21923">
        <ele>524.608</ele>
        <time>2019-05-15T21:38:11Z</time>
      </trkpt>
      <trkpt lat="43.82956" lon="6.2192">
        <ele>524.91</ele>
        <time>2019-05-15T21:38:31Z</time>
      </trkpt>
      <trkpt lat="43.82979" lon="6.21891">
        <ele>525.982</ele>
        <time>2019-05-15T21:38:51Z</time>
      </trkpt>
      <trkpt lat="43.83031" lon="6.21912">
        <ele>525.224</ele>
        <time>2019-05-15T21:39:11Z</time>
      </trkpt>
      <trkpt lat="43.83039" lon="6.21926">
        <ele>524.877</ele>
        <time>2019-05-15T21:39:31Z</time>
      </trkpt>
      <trkpt lat="43.83053" lon="6.21919">
        <ele>525.063</ele>
        <time>2019-05-15T21:39:51Z</time>
      </trkpt>
      <trkpt lat="43.83087" lon="6.21917">
        <ele>526.045</ele>
        <time>2019-05-15T21:40:11Z</time>
      </trkpt>
      <trkpt lat="43.83121" lon="6.21901">
        <ele>526.627</ele>
        <time>2019-05-15T21:40:31Z</time>
      </trkpt>
      <trkpt lat="43.83154" lon="6.2184">
        <ele>528.863</ele>
        <time>2019-05-15T21:40:51Z</time>
      </trkpt>
      <trkpt lat="43.83173" lon="6.21781">
        <ele>530.015</ele>
        <time>2019-05-15T21:41:11Z</time>
      </trkpt>
      <trkpt lat="43.83281" lon="6.21746">
        <ele>533.265</ele>
        <time>2019-05-15T21:41:31Z</time>
      </trkpt>
      <trkpt lat="43.83469" lon="6.21774">
        <ele>533.111</ele>
        <time>2019-05-15T21:41:51Z</time>
      </trkpt>
      <trkpt lat="43.83516" lon="6.21793">
        <ele>538.8</ele>
      </trkpt>
      <trkpt lat="43.83599" lon="6.21779">
        <ele>542</ele>
      </trkpt>
      <trkpt lat="43.8362" lon="6.21749">
        <ele>540.3</ele>
      </trkpt>
      <trkpt lat="43.83662" lon="6.21679">
        <ele>540.6</ele>
      </trkpt>
      <trkpt lat="43.83677" lon="6.2168">
        <ele>542.1</ele>
      </trkpt>
      <trkpt lat="43.83703" lon="6.21708">
        <ele>543.2</ele>
      </trkpt>
      <trkpt lat="43.83741" lon="6.21705">
        <ele>543.4</ele>
      </trkpt>
      <trkpt lat="43.83819" lon="6.2171">
        <ele>547.3</ele>
      </trkpt>
      <trkpt lat="43.83817" lon="6.21723">
        <ele>547.9</ele>
      </trkpt>
      <trkpt lat="43.83884" lon="6.21738">
        <ele>552.1</ele>
      </trkpt>
      <trkpt lat="43.83937" lon="6.21751">
        <ele>555.7</ele>
      </trkpt>
      <trkpt lat="43.8397" lon="6.21773">
        <ele>555.8</ele>
      </trkpt>
      <trkpt lat="43.84009" lon="6.21784">
        <ele>556</ele>
      </trkpt>
      <trkpt lat="43.84071" lon="6.21794">
        <ele>557.2</ele>
      </trkpt>
      <trkpt lat="43.84125" lon="6.21817">
        <ele>559.4</ele>
      </trkpt>
      <trkpt lat="43.84179" lon="6.21831">
        <ele>562</ele>
      </trkpt>
      <trkpt lat="43.84249" lon="6.21863">
        <ele>569.9</ele>
      </trkpt>
      <trkpt lat="43.84262" lon="6.21865">
        <ele>571.9</ele>
      </trkpt>
      <trkpt lat="43.84268" lon="6.21859">
        <ele>571.6</ele>
      </trkpt>
    </trkseg>
  </trk>
</gpx>